Aglaia — V7CW5 — position and weather

sailwx.info

Track history (hours):
 
Tides and Currents Weather Stations Pressure Air Temp Water Temp Dewpoint Dewpoint Depression Visibility Wind Speed Wind Dir Waves Ship Positions

Aglaia

Last reported at 2018-Aug-17 19:59 UTC. Time now 2018-Aug-19 15:20 UTC.
Position N 34°39' E 033°01'.

Length 158.7 m; beam 25.6 m; draft 9.2 m.

Type: Cargo ship. MMSI: 538003372.

Date/timePositionNaut miles runAvg speedWind from/ knotsBaromVisibWave heightAir tempDewpointWater temp
2018-Aug-17 19:59N 34°39' E 033°01'4 4.1
2018-Aug-17 19:06N 34°36' E 033°04'1 9.8
2018-Aug-17 19:00N 34°35' E 033°04'43316.9
2018-Aug-16 17:24N 36°53' E 024°38'1817.4
2018-Aug-16 16:21N 37°05' E 024°21'1617.3
2018-Aug-16 15:25N 37°16' E 024°07'1517.9
2018-Aug-16 14:36N 37°26' E 023°52'217.9
2018-Aug-16 14:30N 37°28' E 023°51'917.5
2018-Aug-16 14:00N 37°35' E 023°46'917.7
2018-Aug-16 13:30N 37°43' E 023°41'917.6
2018-Aug-16 13:00N 37°51' E 023°37'612.1
2018-Aug-16 12:30N 37°57' E 023°36'0 0.4
2018-Aug-16 11:59N 37°57' E 023°36'0 0.0
2018-Aug-16 11:29N 37°57' E 023°36'0 0.0
2018-Aug-16 10:59N 37°57' E 023°36'0 0.0
2018-Aug-16 10:29N 37°57' E 023°36'0 0.0
2018-Aug-16 09:59N 37°57' E 023°36'0 0.0
2018-Aug-16 09:29N 37°57' E 023°36'0 0.0
2018-Aug-16 08:59N 37°57' E 023°36'0 0.0
2018-Aug-16 08:29N 37°57' E 023°36'0 0.0
2018-Aug-16 07:59N 37°57' E 023°36'0 0.0
2018-Aug-16 07:29N 37°57' E 023°36'0 0.0
2018-Aug-16 06:59N 37°57' E 023°36'0 0.0
2018-Aug-16 06:29N 37°57' E 023°36'0 0.0
2018-Aug-16 05:59N 37°57' E 023°36'0 0.0
2018-Aug-16 05:29N 37°57' E 023°36'0 0.0
2018-Aug-16 04:59N 37°57' E 023°36'1 2.3
2018-Aug-16 04:30N 37°56' E 023°36'2 3.1
2018-Aug-16 04:00N 37°55' E 023°36'0 1.0
2018-Aug-16 03:31N 37°54' E 023°36'2 3.1
2018-Aug-16 03:01N 37°53' E 023°36'0 0.2
2018-Aug-16 02:31N 37°53' E 023°36'1 2.3
2018-Aug-16 02:01N 37°52' E 023°36'0 0.7
2018-Aug-16 01:30N 37°52' E 023°36'0 0.3
2018-Aug-16 01:01N 37°52' E 023°36'0 0.9
2018-Aug-16 00:31N 37°52' E 023°35'1 1.4
2018-Aug-16 00:00N 37°51' E 023°36'0 0.5
2018-Aug-15 23:30N 37°51' E 023°36'0 0.3
2018-Aug-15 23:00N 37°51' E 023°36'2 3.1
2018-Aug-15 22:30N 37°51' E 023°38'3 5.3
2018-Aug-15 22:01N 37°49' E 023°40'4 7.8
2018-Aug-15 21:30N 37°46' E 023°42'4 7.9
2018-Aug-15 21:00N 37°42' E 023°44'4 7.7
2018-Aug-15 20:30N 37°39' E 023°45'4 8.7
2018-Aug-15 20:01N 37°34' E 023°44'5 9.1
2018-Aug-15 19:30N 37°30' E 023°43'4 9.1
2018-Aug-15 19:00N 37°25' E 023°42'5 9.4
2018-Aug-15 18:30N 37°21' E 023°41'5 9.3
2018-Aug-15 18:00N 37°16' E 023°40'36811.6
2018-Aug-14 10:15N 37°50' E 015°57'813.9
2018-Aug-14 09:40N 37°52' E 015°47'313.8
2018-Aug-14 09:26N 37°53' E 015°43'713.6
2018-Aug-14 08:57N 37°56' E 015°36'712.8
2018-Aug-14 08:25N 38°03' E 015°34'613.8
2018-Aug-14 07:58N 38°09' E 015°35'612.8
2018-Aug-14 07:30N 38°15' E 015°37'612.2
2018-Aug-14 07:00N 38°20' E 015°40'915.6
2018-Aug-14 06:27N 38°28' E 015°36'715.7
2018-Aug-14 05:59N 38°35' E 015°32'10116.3
2018-Aug-13 23:50N 40°09' E 014°47'615.6
2018-Aug-13 23:27N 40°15' E 014°45'815.9
2018-Aug-13 22:58N 40°23' E 014°44'816.2
2018-Aug-13 22:30N 40°30' E 014°44'7 0.6
2018-Aug-13 09:28N 40°37' E 014°40'714.2
2018-Aug-13 09:00N 40°34' E 014°32'714.2
2018-Aug-13 08:30N 40°31' E 014°23'714.1
2018-Aug-13 08:00N 40°30' E 014°14'713.9
2018-Aug-13 07:28N 40°31' E 014°05'714.2
2018-Aug-13 07:00N 40°32' E 013°56'714.5
2018-Aug-13 06:30N 40°34' E 013°47'1015.3
2018-Aug-13 05:53N 40°36' E 013°35'49217.2
2018-Aug-12 01:12N 40°22' E 002°48'417.8
2018-Aug-12 00:59N 40°21' E 002°43'189 6.8
2018-Aug-10 21:20N 38°04' W 000°05'1717.7
2018-Aug-10 20:22N 37°50' W 000°17'2117.4
2018-Aug-10 19:11N 37°33' W 000°32'22717.6
2018-Aug-10 06:16N 36°02' W 004°52'519.8
2018-Aug-10 06:00N 36°01' W 004°58'1121.1
2018-Aug-10 05:30N 35°59' W 005°11'1020.3
2018-Aug-10 05:00N 35°58' W 005°24'28515.5
2018-Aug-09 10:36N 38°56' W 010°04'13618.7
2018-Aug-09 03:22N 40°60' W 008°51'718.9
2018-Aug-09 03:00N 41°06' W 008°46'612.7
2018-Aug-09 02:30N 41°11' W 008°42'0 0.1
2018-Aug-09 01:58N 41°11' W 008°42'0 0.0
2018-Aug-09 01:28N 41°11' W 008°42'0 0.0
2018-Aug-09 00:58N 41°11' W 008°42'0 0.0
2018-Aug-09 00:28N 41°11' W 008°42'0 0.0
2018-Aug-08 23:58N 41°11' W 008°42'0 0.0
2018-Aug-08 23:28N 41°11' W 008°42'0 0.0
2018-Aug-08 22:58N 41°11' W 008°42'0 0.0
2018-Aug-08 22:28N 41°11' W 008°42'0 0.0
2018-Aug-08 21:58N 41°11' W 008°42'0 0.0
2018-Aug-08 21:28N 41°11' W 008°42'0 0.0
2018-Aug-08 20:58N 41°11' W 008°42'1 1.9
2018-Aug-08 20:30N 41°10' W 008°42'3 5.1
2018-Aug-08 20:00N 41°09' W 008°45'1 1.4
2018-Aug-08 19:30N 41°09' W 008°46'1 2.4
2018-Aug-08 18:58N 41°09' W 008°48'0 0.1
2018-Aug-08 18:28N 41°09' W 008°48'0 0.1
2018-Aug-08 17:58N 41°09' W 008°48'0 0.1
2018-Aug-08 17:28N 41°09' W 008°48'0 0.0
2018-Aug-08 16:49N 41°09' W 008°48'0 0.0
2018-Aug-08 16:25N 41°09' W 008°48'0 0.0
2018-Aug-08 15:58N 41°09' W 008°48'0 0.0
2018-Aug-08 15:28N 41°09' W 008°48'0 0.0
2018-Aug-08 14:58N 41°09' W 008°48'0 0.0
2018-Aug-08 14:22N 41°09' W 008°48'0 0.0
2018-Aug-08 13:55N 41°09' W 008°48'0 0.0
2018-Aug-08 13:28N 41°09' W 008°48'0 0.0
2018-Aug-08 12:58N 41°09' W 008°48'0 0.0
2018-Aug-08 12:28N 41°09' W 008°48'0 0.0
2018-Aug-08 11:49N 41°09' W 008°48'0 0.0
2018-Aug-08 11:28N 41°09' W 008°48'0 0.0
2018-Aug-08 10:58N 41°09' W 008°48'0 0.0
2018-Aug-08 10:28N 41°09' W 008°48'0 0.0
2018-Aug-08 09:58N 41°09' W 008°48'0 0.0
2018-Aug-08 09:28N 41°09' W 008°48'0 0.0
2018-Aug-08 08:58N 41°09' W 008°48'0 0.0
2018-Aug-08 08:28N 41°09' W 008°48'0 0.1
2018-Aug-08 07:58N 41°09' W 008°48'0 0.1
2018-Aug-08 07:28N 41°09' W 008°48'0 0.0
2018-Aug-08 06:58N 41°09' W 008°48'0 0.0
2018-Aug-08 06:28N 41°09' W 008°48'0 0.0
2018-Aug-08 05:58N 41°09' W 008°48'0 0.0
2018-Aug-08 05:28N 41°09' W 008°48'0 0.0
2018-Aug-08 04:58N 41°09' W 008°48'0 0.0
2018-Aug-08 04:28N 41°09' W 008°48'0 0.0
2018-Aug-08 03:59N 41°09' W 008°48'0 0.8
2018-Aug-08 03:30N 41°09' W 008°48'  
Track history (hours):
 
Tides and Currents Weather Stations Pressure Air Temp Water Temp Dewpoint Dewpoint Depression Visibility Wind Speed Wind Dir Waves Ship Positions

Aglaia

Last reported at 2018-Aug-17 19:59 UTC. Time now 2018-Aug-19 15:20 UTC.
Position N 34°39' E 033°01'.

Length 158.7 m; beam 25.6 m; draft 9.2 m.

Type: Cargo ship. MMSI: 538003372.

Date/timePositionNaut miles runAvg speedWind from/ knotsBaromVisibWave heightAir tempDewpointWater temp
2018-Aug-17 19:59N 34°39' E 033°01'4 4.1
2018-Aug-17 19:06N 34°36' E 033°04'1 9.8
2018-Aug-17 19:00N 34°35' E 033°04'43316.9
2018-Aug-16 17:24N 36°53' E 024°38'1817.4
2018-Aug-16 16:21N 37°05' E 024°21'1617.3
2018-Aug-16 15:25N 37°16' E 024°07'1517.9
2018-Aug-16 14:36N 37°26' E 023°52'217.9
2018-Aug-16 14:30N 37°28' E 023°51'917.5
2018-Aug-16 14:00N 37°35' E 023°46'917.7
2018-Aug-16 13:30N 37°43' E 023°41'917.6
2018-Aug-16 13:00N 37°51' E 023°37'612.1
2018-Aug-16 12:30N 37°57' E 023°36'0 0.4
2018-Aug-16 11:59N 37°57' E 023°36'0 0.0
2018-Aug-16 11:29N 37°57' E 023°36'0 0.0
2018-Aug-16 10:59N 37°57' E 023°36'0 0.0
2018-Aug-16 10:29N 37°57' E 023°36'0 0.0
2018-Aug-16 09:59N 37°57' E 023°36'0 0.0
2018-Aug-16 09:29N 37°57' E 023°36'0 0.0
2018-Aug-16 08:59N 37°57' E 023°36'0 0.0
2018-Aug-16 08:29N 37°57' E 023°36'0 0.0
2018-Aug-16 07:59N 37°57' E 023°36'0 0.0
2018-Aug-16 07:29N 37°57' E 023°36'0 0.0
2018-Aug-16 06:59N 37°57' E 023°36'0 0.0
2018-Aug-16 06:29N 37°57' E 023°36'0 0.0
2018-Aug-16 05:59N 37°57' E 023°36'0 0.0
2018-Aug-16 05:29N 37°57' E 023°36'0 0.0
2018-Aug-16 04:59N 37°57' E 023°36'1 2.3
2018-Aug-16 04:30N 37°56' E 023°36'2 3.1
2018-Aug-16 04:00N 37°55' E 023°36'0 1.0
2018-Aug-16 03:31N 37°54' E 023°36'2 3.1
2018-Aug-16 03:01N 37°53' E 023°36'0 0.2
2018-Aug-16 02:31N 37°53' E 023°36'1 2.3
2018-Aug-16 02:01N 37°52' E 023°36'0 0.7
2018-Aug-16 01:30N 37°52' E 023°36'0 0.3
2018-Aug-16 01:01N 37°52' E 023°36'0 0.9
2018-Aug-16 00:31N 37°52' E 023°35'1 1.4
2018-Aug-16 00:00N 37°51' E 023°36'0 0.5
2018-Aug-15 23:30N 37°51' E 023°36'0 0.3
2018-Aug-15 23:00N 37°51' E 023°36'2 3.1
2018-Aug-15 22:30N 37°51' E 023°38'3 5.3
2018-Aug-15 22:01N 37°49' E 023°40'4 7.8
2018-Aug-15 21:30N 37°46' E 023°42'4 7.9
2018-Aug-15 21:00N 37°42' E 023°44'4 7.7
2018-Aug-15 20:30N 37°39' E 023°45'4 8.7
2018-Aug-15 20:01N 37°34' E 023°44'5 9.1
2018-Aug-15 19:30N 37°30' E 023°43'4 9.1
2018-Aug-15 19:00N 37°25' E 023°42'5 9.4
2018-Aug-15 18:30N 37°21' E 023°41'5 9.3
2018-Aug-15 18:00N 37°16' E 023°40'36811.6
2018-Aug-14 10:15N 37°50' E 015°57'813.9
2018-Aug-14 09:40N 37°52' E 015°47'313.8
2018-Aug-14 09:26N 37°53' E 015°43'713.6
2018-Aug-14 08:57N 37°56' E 015°36'712.8
2018-Aug-14 08:25N 38°03' E 015°34'613.8
2018-Aug-14 07:58N 38°09' E 015°35'612.8
2018-Aug-14 07:30N 38°15' E 015°37'612.2
2018-Aug-14 07:00N 38°20' E 015°40'915.6
2018-Aug-14 06:27N 38°28' E 015°36'715.7
2018-Aug-14 05:59N 38°35' E 015°32'10116.3
2018-Aug-13 23:50N 40°09' E 014°47'615.6
2018-Aug-13 23:27N 40°15' E 014°45'815.9
2018-Aug-13 22:58N 40°23' E 014°44'816.2
2018-Aug-13 22:30N 40°30' E 014°44'7 0.6
2018-Aug-13 09:28N 40°37' E 014°40'714.2
2018-Aug-13 09:00N 40°34' E 014°32'714.2
2018-Aug-13 08:30N 40°31' E 014°23'714.1
2018-Aug-13 08:00N 40°30' E 014°14'713.9
2018-Aug-13 07:28N 40°31' E 014°05'714.2
2018-Aug-13 07:00N 40°32' E 013°56'714.5
2018-Aug-13 06:30N 40°34' E 013°47'1015.3
2018-Aug-13 05:53N 40°36' E 013°35'49217.2
2018-Aug-12 01:12N 40°22' E 002°48'417.8
2018-Aug-12 00:59N 40°21' E 002°43'189 6.8
2018-Aug-10 21:20N 38°04' W 000°05'1717.7
2018-Aug-10 20:22N 37°50' W 000°17'2117.4
2018-Aug-10 19:11N 37°33' W 000°32'22717.6
2018-Aug-10 06:16N 36°02' W 004°52'519.8
2018-Aug-10 06:00N 36°01' W 004°58'1121.1
2018-Aug-10 05:30N 35°59' W 005°11'1020.3
2018-Aug-10 05:00N 35°58' W 005°24'28515.5
2018-Aug-09 10:36N 38°56' W 010°04'13618.7
2018-Aug-09 03:22N 40°60' W 008°51'718.9
2018-Aug-09 03:00N 41°06' W 008°46'612.7
2018-Aug-09 02:30N 41°11' W 008°42'0 0.1
2018-Aug-09 01:58N 41°11' W 008°42'0 0.0
2018-Aug-09 01:28N 41°11' W 008°42'0 0.0
2018-Aug-09 00:58N 41°11' W 008°42'0 0.0
2018-Aug-09 00:28N 41°11' W 008°42'0 0.0
2018-Aug-08 23:58N 41°11' W 008°42'0 0.0
2018-Aug-08 23:28N 41°11' W 008°42'0 0.0
2018-Aug-08 22:58N 41°11' W 008°42'0 0.0
2018-Aug-08 22:28N 41°11' W 008°42'0 0.0
2018-Aug-08 21:58N 41°11' W 008°42'0 0.0
2018-Aug-08 21:28N 41°11' W 008°42'0 0.0
2018-Aug-08 20:58N 41°11' W 008°42'1 1.9
2018-Aug-08 20:30N 41°10' W 008°42'3 5.1
2018-Aug-08 20:00N 41°09' W 008°45'1 1.4
2018-Aug-08 19:30N 41°09' W 008°46'1 2.4
2018-Aug-08 18:58N 41°09' W 008°48'0 0.1
2018-Aug-08 18:28N 41°09' W 008°48'0 0.1
2018-Aug-08 17:58N 41°09' W 008°48'0 0.1
2018-Aug-08 17:28N 41°09' W 008°48'0 0.0
2018-Aug-08 16:49N 41°09' W 008°48'0 0.0
2018-Aug-08 16:25N 41°09' W 008°48'0 0.0
2018-Aug-08 15:58N 41°09' W 008°48'0 0.0
2018-Aug-08 15:28N 41°09' W 008°48'0 0.0
2018-Aug-08 14:58N 41°09' W 008°48'0 0.0
2018-Aug-08 14:22N 41°09' W 008°48'0 0.0
2018-Aug-08 13:55N 41°09' W 008°48'0 0.0
2018-Aug-08 13:28N 41°09' W 008°48'0 0.0
2018-Aug-08 12:58N 41°09' W 008°48'0 0.0
2018-Aug-08 12:28N 41°09' W 008°48'0 0.0
2018-Aug-08 11:49N 41°09' W 008°48'0 0.0
2018-Aug-08 11:28N 41°09' W 008°48'0 0.0
2018-Aug-08 10:58N 41°09' W 008°48'0 0.0
2018-Aug-08 10:28N 41°09' W 008°48'0 0.0
2018-Aug-08 09:58N 41°09' W 008°48'0 0.0
2018-Aug-08 09:28N 41°09' W 008°48'0 0.0
2018-Aug-08 08:58N 41°09' W 008°48'0 0.0
2018-Aug-08 08:28N 41°09' W 008°48'0 0.1
2018-Aug-08 07:58N 41°09' W 008°48'0 0.1
2018-Aug-08 07:28N 41°09' W 008°48'0 0.0
2018-Aug-08 06:58N 41°09' W 008°48'0 0.0
2018-Aug-08 06:28N 41°09' W 008°48'0 0.0
2018-Aug-08 05:58N 41°09' W 008°48'0 0.0
2018-Aug-08 05:28N 41°09' W 008°48'0 0.0
2018-Aug-08 04:58N 41°09' W 008°48'0 0.0
2018-Aug-08 04:28N 41°09' W 008°48'0 0.0
2018-Aug-08 03:59N 41°09' W 008°48'0 0.8
2018-Aug-08 03:30N 41°09' W 008°48'  

Dump ship's entire track history